createdAt,value
2017-12-04T00:00:20.958Z,84.69
2017-12-04T00:01:20.963Z,84.78
2017-12-04T00:02:20.976Z,84.59
2017-12-04T00:03:20.982Z,84.5
2017-12-04T00:04:20.729Z,84.78
2017-12-04T00:05:21.005Z,84.59
2017-12-04T00:06:21.016Z,84.41
2017-12-04T00:07:21.081Z,84.98
2017-12-04T00:08:21.081Z,85.07
2017-12-04T00:09:21.052Z,85.26
2017-12-04T00:10:21.057Z,84.98
2017-12-04T00:11:20.807Z,84.98
2017-12-04T00:12:21.081Z,84.98
2017-12-04T00:13:21.097Z,85.07
2017-12-04T00:14:21.105Z,84.69
2017-12-04T00:15:21.116Z,84.78
2017-12-04T00:16:21.130Z,84.98
2017-12-04T00:17:21.136Z,84.88
2017-12-04T00:18:21.194Z,84.69
2017-12-04T00:19:21.159Z,84.59
2017-12-04T00:20:21.166Z,84.59
2017-12-04T00:21:21.185Z,84.41
2017-12-04T00:22:21.193Z,84.59
2017-12-04T00:23:20.939Z,84.5
2017-12-04T00:24:21.213Z,84.74
2017-12-04T00:25:20.956Z,85.26
2017-12-04T00:26:21.229Z,85.17
2017-12-04T00:27:21.247Z,84.88
2017-12-04T00:28:21.256Z,85.3
2017-12-04T00:29:20.994Z,85.3
2017-12-04T00:30:21.273Z,85.17
2017-12-04T00:31:21.286Z,84.98
2017-12-04T00:32:21.298Z,85.17
2017-12-04T00:33:21.312Z,84.78
2017-12-04T00:34:21.319Z,84.5
2017-12-04T00:35:21.333Z,84.78
2017-12-04T00:36:21.075Z,84.41
2017-12-04T00:37:21.353Z,84.59
2017-12-04T00:38:21.364Z,84.59
2017-12-04T00:39:21.380Z,84.78
2017-12-04T00:40:21.115Z,84.69
2017-12-04T00:41:21.129Z,84.78
2017-12-04T00:42:21.411Z,84.69
2017-12-04T00:43:21.417Z,84.88
2017-12-04T00:44:21.161Z,84.5
2017-12-04T00:45:21.448Z,84.41
2017-12-04T00:46:21.459Z,84.5
2017-12-04T00:47:21.458Z,84.59
2017-12-04T00:48:21.472Z,84.74
2017-12-04T00:49:21.482Z,84.59
2017-12-04T00:50:21.486Z,84.78
2017-12-04T00:51:21.502Z,85.26
2017-12-04T00:52:21.508Z,84.78
2017-12-04T00:53:21.523Z,84.88
2017-12-04T00:54:21.533Z,84.88
2017-12-04T00:55:21.550Z,84.88
2017-12-04T00:56:21.555Z,84.69
2017-12-04T00:57:21.564Z,84.69
2017-12-04T00:58:21.576Z,84.5
2017-12-04T00:59:21.589Z,84.64
2017-12-04T01:00:21.597Z,84.69
2017-12-04T01:01:21.612Z,84.59
2017-12-04T01:02:21.354Z,84.78
2017-12-04T01:03:21.629Z,84.83
2017-12-04T01:04:21.374Z,84.78
2017-12-04T01:05:21.648Z,84.5
2017-12-04T01:06:21.665Z,84.64
2017-12-04T01:07:21.676Z,84.41
2017-12-04T01:08:21.695Z,84.5
2017-12-04T01:09:21.431Z,84.69
2017-12-04T01:10:21.437Z,84.12
2017-12-04T01:11:21.722Z,84.31
2017-12-04T01:12:21.725Z,84.98
2017-12-04T01:13:21.734Z,84.31
2017-12-04T01:14:21.746Z,84.22
2017-12-04T01:15:21.805Z,84.12
2017-12-04T01:16:21.505Z,83.94
2017-12-04T01:17:21.779Z,84.17
2017-12-04T01:18:21.796Z,84.26
2017-12-04T01:19:21.799Z,84.03
2017-12-04T01:20:21.809Z,84.12
2017-12-04T01:21:21.820Z,84.03
2017-12-04T01:22:21.834Z,84.03
2017-12-04T01:23:21.844Z,84.17
2017-12-04T01:24:21.851Z,84.12
2017-12-04T01:25:21.865Z,84.31
2017-12-04T01:26:21.878Z,84.78
2017-12-04T01:27:21.884Z,84.88
2017-12-04T01:28:21.636Z,84.88
2017-12-04T01:29:21.908Z,84.03
2017-12-04T01:30:21.924Z,84.59
2017-12-04T01:31:21.931Z,84.31
2017-12-04T01:32:21.944Z,84.22
2017-12-04T01:33:21.954Z,84.88
2017-12-04T01:34:21.962Z,84.78
2017-12-04T01:35:21.979Z,84.98
2017-12-04T01:36:21.982Z,84.88
2017-12-04T01:37:21.999Z,84.88
2017-12-04T01:38:24.544Z,84.88
2017-12-04T01:39:21.752Z,84.88
2017-12-04T01:40:22.031Z,84.88
2017-12-04T01:41:22.043Z,84.98
2017-12-04T01:42:22.048Z,84.31
2017-12-04T01:43:22.062Z,84.59
2017-12-04T01:44:22.081Z,84.41
2017-12-04T01:45:22.082Z,84.88
2017-12-04T01:46:22.096Z,84.88
2017-12-04T01:47:22.105Z,84.98
2017-12-04T01:48:22.119Z,84.88
2017-12-04T01:49:22.126Z,84.88
2017-12-04T01:50:22.139Z,84.88
2017-12-04T01:51:22.150Z,84.69
2017-12-04T01:52:22.159Z,84.88
2017-12-04T01:53:22.167Z,84.78
2017-12-04T01:54:21.912Z,84.88
2017-12-04T01:55:22.192Z,84.88
2017-12-04T01:56:22.203Z,84.17
2017-12-04T01:57:22.210Z,84.26
2017-12-04T01:58:22.227Z,84.83
2017-12-04T01:59:21.966Z,84.22
2017-12-04T02:00:22.251Z,84.88
2017-12-04T02:01:22.266Z,84.64
2017-12-04T02:02:22.266Z,83.97
2017-12-04T02:03:22.289Z,84.45
2017-12-04T02:04:22.287Z,84.98
2017-12-04T02:05:22.297Z,84.98
2017-12-04T02:06:22.316Z,84.92
2017-12-04T02:07:22.320Z,84.83
2017-12-04T02:08:22.333Z,85.02
2017-12-04T02:09:22.076Z,84.36
2017-12-04T02:10:22.365Z,84.92
2017-12-04T02:11:22.368Z,84.92
2017-12-04T02:12:22.381Z,84.12
2017-12-04T02:13:22.389Z,84.98
2017-12-04T02:14:22.397Z,84.92
2017-12-04T02:15:22.407Z,85.02
2017-12-04T02:16:22.421Z,84.92
2017-12-04T02:17:22.429Z,84.64
2017-12-04T02:18:22.444Z,84.26
2017-12-04T02:19:22.492Z,84.45
2017-12-04T02:20:22.468Z,84.5
2017-12-04T02:21:22.476Z,84.26
2017-12-04T02:22:22.483Z,84.45
2017-12-04T02:23:22.225Z,84.17
2017-12-04T02:24:22.505Z,84.36
2017-12-04T02:25:22.250Z,84.5
2017-12-04T02:26:22.533Z,84.12
2017-12-04T02:27:22.269Z,83.88
2017-12-04T02:28:22.546Z,83.65
2017-12-04T02:29:22.609Z,83.55
2017-12-04T02:30:22.571Z,83.55
2017-12-04T02:31:22.594Z,83.65
2017-12-04T02:32:22.331Z,83.84
2017-12-04T02:33:22.335Z,83.88
2017-12-04T02:34:22.614Z,83.74
2017-12-04T02:35:22.622Z,83.55
2017-12-04T02:36:22.640Z,83.84
2017-12-04T02:37:22.646Z,83.84
2017-12-04T02:38:22.680Z,83.84
2017-12-04T02:39:22.689Z,84.41
2017-12-04T02:40:22.414Z,84.36
2017-12-04T02:41:22.686Z,84.22
2017-12-04T02:42:22.430Z,84.41
2017-12-04T02:43:22.710Z,84.12
2017-12-04T02:44:22.719Z,84.36
2017-12-04T02:45:22.991Z,84.31
2017-12-04T02:46:22.745Z,84.31
2017-12-04T02:47:22.754Z,84.22
2017-12-04T02:48:22.763Z,84.03
2017-12-04T02:49:22.772Z,83.74
2017-12-04T02:50:22.520Z,84.03
2017-12-04T02:51:22.798Z,83.69
2017-12-04T02:52:22.823Z,83.84
2017-12-04T02:53:22.822Z,84.22
2017-12-04T02:54:22.831Z,84.03
2017-12-04T02:55:22.573Z,84.26
2017-12-04T02:56:22.853Z,83.94
2017-12-04T02:57:22.862Z,83.74
2017-12-04T02:58:22.870Z,83.84
2017-12-04T02:59:22.884Z,83.84
2017-12-04T03:00:22.891Z,83.5
2017-12-04T03:01:22.954Z,83.55
2017-12-04T03:02:22.649Z,83.46
2017-12-04T03:03:22.926Z,83.84
2017-12-04T03:04:22.948Z,83.55
2017-12-04T03:05:22.680Z,83.84
2017-12-04T03:06:22.957Z,83.65
2017-12-04T03:07:22.969Z,84.03
2017-12-04T03:08:22.712Z,83.94
2017-12-04T03:09:23.032Z,83.74
2017-12-04T03:10:23.008Z,83.65
2017-12-04T03:11:23.012Z,83.36
2017-12-04T03:12:23.022Z,82.98
2017-12-04T03:13:23.035Z,83.46
2017-12-04T03:14:23.041Z,83.46
2017-12-04T03:15:23.051Z,83.46
2017-12-04T03:16:23.064Z,83.36
2017-12-04T03:17:22.806Z,83.36
2017-12-04T03:18:23.085Z,82.98
2017-12-04T03:19:23.100Z,83.08
2017-12-04T03:20:23.106Z,82.79
2017-12-04T03:21:23.119Z,82.98
2017-12-04T03:22:23.128Z,83.17
2017-12-04T03:23:23.142Z,83.46
2017-12-04T03:24:23.158Z,83.27
2017-12-04T03:25:23.166Z,83.08
2017-12-04T03:26:23.172Z,82.79
2017-12-04T03:27:23.183Z,83.36
2017-12-04T03:28:23.206Z,83.17
2017-12-04T03:29:23.207Z,83.46
2017-12-04T03:30:23.219Z,83.17
2017-12-04T03:31:23.239Z,83.36
2017-12-04T03:32:23.238Z,82.98
2017-12-04T03:33:23.245Z,83.46
2017-12-04T03:34:22.996Z,83.27
2017-12-04T03:35:23.004Z,83.46
2017-12-04T03:36:23.278Z,82.98
2017-12-04T03:37:23.291Z,83.08
2017-12-04T03:38:23.038Z,83.17
2017-12-04T03:39:23.313Z,83.36
2017-12-04T03:40:23.324Z,83.94
2017-12-04T03:41:23.336Z,83.27
2017-12-04T03:42:23.344Z,83.08
2017-12-04T03:43:23.352Z,83.36
2017-12-04T03:44:23.364Z,82.98
2017-12-04T03:45:23.375Z,83.36
2017-12-04T03:46:23.385Z,83.36
2017-12-04T03:47:23.398Z,83.36
2017-12-04T03:48:23.407Z,83.65
2017-12-04T03:49:23.422Z,83.36
2017-12-04T03:50:23.165Z,83.65
2017-12-04T03:51:23.452Z,83.36
2017-12-04T03:52:23.452Z,83.65
2017-12-04T03:53:23.469Z,82.98
2017-12-04T03:54:23.475Z,83.46
2017-12-04T03:55:23.486Z,83.36
2017-12-04T03:56:23.497Z,83.55
2017-12-04T03:57:23.234Z,82.98
2017-12-04T03:58:23.513Z,83.27
2017-12-04T03:59:23.528Z,83.08
2017-12-04T04:00:23.269Z,83.65
2017-12-04T04:01:23.545Z,83.36
2017-12-04T04:02:23.292Z,83.08
2017-12-04T04:03:23.567Z,83.46
2017-12-04T04:04:23.576Z,83.55
2017-12-04T04:05:23.589Z,83.17
2017-12-04T04:06:23.331Z,83.08
2017-12-04T04:07:23.614Z,83.46
2017-12-04T04:08:23.627Z,83.17
2017-12-04T04:09:23.632Z,83.46
2017-12-04T04:10:23.641Z,82.79
2017-12-04T04:11:23.654Z,83.55
2017-12-04T04:12:23.664Z,83.17
2017-12-04T04:13:23.676Z,83.17
2017-12-04T04:14:23.690Z,83.08
2017-12-04T04:15:23.429Z,83.46
2017-12-04T04:16:23.725Z,83.46
2017-12-04T04:17:23.722Z,83.84
2017-12-04T04:18:23.731Z,83.94
2017-12-04T04:19:23.737Z,83.46
2017-12-04T04:20:23.748Z,83.27
2017-12-04T04:21:23.760Z,83.46
2017-12-04T04:22:23.772Z,83.55
2017-12-04T04:23:23.787Z,83.08
2017-12-04T04:24:23.527Z,83.27
2017-12-04T04:25:23.806Z,83.46
2017-12-04T04:26:23.545Z,82.98
2017-12-04T04:27:23.823Z,82.98
2017-12-04T04:28:23.834Z,82.98
2017-12-04T04:29:23.846Z,83.36
2017-12-04T04:30:23.853Z,83.27
2017-12-04T04:31:23.600Z,83.46
2017-12-04T04:32:23.875Z,83.17
2017-12-04T04:33:23.887Z,83.08
2017-12-04T04:34:23.898Z,83.08
2017-12-04T04:35:23.922Z,83.08
2017-12-04T04:36:23.919Z,83.08
2017-12-04T04:37:23.928Z,83.27
2017-12-04T04:38:23.935Z,83.27
2017-12-04T04:39:23.950Z,83.55
2017-12-04T04:40:23.959Z,83.46
2017-12-04T04:41:23.973Z,83.27
2017-12-04T04:42:23.981Z,83.27
2017-12-04T04:43:23.993Z,83.65
2017-12-04T04:44:24.005Z,83.46
2017-12-04T04:45:24.012Z,83.08
2017-12-04T04:46:24.024Z,83.08
2017-12-04T04:47:23.770Z,83.46
2017-12-04T04:48:24.043Z,83.36
2017-12-04T04:49:24.055Z,83.36
2017-12-04T04:50:23.800Z,83.17
2017-12-04T04:51:24.081Z,83.36
2017-12-04T04:52:24.089Z,83.46
2017-12-04T04:53:24.099Z,83.46
2017-12-04T04:54:24.113Z,83.36
2017-12-04T04:55:23.863Z,83.36
2017-12-04T04:56:24.131Z,83.94
2017-12-04T04:57:23.876Z,83.17
2017-12-04T04:58:24.154Z,83.65
2017-12-04T04:59:24.160Z,83.27
2017-12-04T05:00:23.906Z,83.27
2017-12-04T05:01:24.186Z,83.27
2017-12-04T05:02:24.193Z,83.65
2017-12-04T05:03:24.204Z,83.08
2017-12-04T05:04:24.220Z,83.36
2017-12-04T05:05:24.228Z,83.36
2017-12-04T05:06:24.239Z,82.98
2017-12-04T05:07:24.248Z,83.27
2017-12-04T05:08:24.259Z,83.08
2017-12-04T05:09:24.268Z,83.17
2017-12-04T05:10:24.280Z,82.98
2017-12-04T05:11:24.290Z,83.27
2017-12-04T05:12:24.304Z,83.27
2017-12-04T05:13:24.311Z,83.27
2017-12-04T05:14:24.054Z,83.27
2017-12-04T05:15:24.331Z,83.27
2017-12-04T05:16:24.380Z,82.98
2017-12-04T05:17:24.353Z,83.55
2017-12-04T05:18:24.368Z,83.17
2017-12-04T05:19:24.109Z,83.74
2017-12-04T05:20:24.390Z,83.94
2017-12-04T05:21:24.405Z,83.84
2017-12-04T05:22:24.406Z,83.74
2017-12-04T05:23:24.150Z,83.46
2017-12-04T05:24:24.428Z,82.98
2017-12-04T05:25:24.438Z,83.27
2017-12-04T05:26:24.446Z,83.27
2017-12-04T05:27:24.459Z,83.27
2017-12-04T05:28:24.467Z,83.27
2017-12-04T05:29:24.481Z,83.27
2017-12-04T05:30:24.494Z,83.46
2017-12-04T05:31:24.234Z,83.55
2017-12-04T05:32:24.244Z,83.27
2017-12-04T05:33:24.521Z,83.36
2017-12-04T05:34:24.531Z,84.12
2017-12-04T05:35:24.544Z,83.94
2017-12-04T05:36:24.554Z,83.94
2017-12-04T05:37:24.565Z,84.03
2017-12-04T05:38:24.576Z,83.46
2017-12-04T05:39:24.582Z,83.74
2017-12-04T05:40:24.593Z,83.94
2017-12-04T05:41:24.607Z,83.36
2017-12-04T05:42:24.618Z,83.55
2017-12-04T05:43:24.651Z,83.46
2017-12-04T05:44:24.639Z,83.17
2017-12-04T05:45:24.648Z,83.27
2017-12-04T05:46:24.660Z,83.27
2017-12-04T05:47:24.676Z,83.17
2017-12-04T05:48:24.416Z,83.46
2017-12-04T05:49:24.703Z,83.55
2017-12-04T05:50:24.432Z,83.36
2017-12-04T05:51:24.713Z,83.74
2017-12-04T05:52:24.721Z,83.65
2017-12-04T05:53:24.733Z,83.84
2017-12-04T05:54:24.752Z,83.46
2017-12-04T05:55:24.759Z,83.55
2017-12-04T05:56:24.766Z,83.74
2017-12-04T05:57:24.805Z,83.74
2017-12-04T05:58:24.785Z,83.84
2017-12-04T05:59:24.796Z,84.22
2017-12-04T06:00:24.808Z,84.31
2017-12-04T06:01:24.817Z,84.12
2017-12-04T06:02:24.558Z,84.31
2017-12-04T06:03:24.842Z,84.22
2017-12-04T06:04:24.582Z,84.41
2017-12-04T06:05:24.948Z,84.41
2017-12-04T06:06:24.876Z,84.03
2017-12-04T06:07:24.879Z,84.26
2017-12-04T06:08:24.895Z,84.26
2017-12-04T06:09:24.906Z,84.36
2017-12-04T06:10:24.914Z,84.26
2017-12-04T06:11:24.938Z,84.26
2017-12-04T06:12:24.934Z,84.45
2017-12-04T06:13:24.943Z,84.45
2017-12-04T06:14:24.960Z,84.36
2017-12-04T06:15:24.698Z,84.17
2017-12-04T06:16:24.977Z,84.17
2017-12-04T06:17:24.987Z,84.17
2017-12-04T06:18:24.999Z,84.26
2017-12-04T06:19:25.011Z,84.26
2017-12-04T06:20:25.019Z,84.36
2017-12-04T06:21:25.029Z,84.26
2017-12-04T06:22:25.039Z,84.64
2017-12-04T06:23:25.059Z,84.45
2017-12-04T06:24:25.070Z,84.17
2017-12-04T06:25:24.808Z,85.02
2017-12-04T06:26:25.084Z,84.64
2017-12-04T06:27:25.096Z,84.17
2017-12-04T06:28:25.109Z,84.36
2017-12-04T06:29:25.165Z,84.17
2017-12-04T06:30:25.130Z,84.45
2017-12-04T06:31:25.229Z,84.17
2017-12-04T06:32:25.149Z,84.55
2017-12-04T06:33:25.160Z,84.26
2017-12-04T06:34:24.905Z,84.36
2017-12-04T06:35:25.180Z,84.36
2017-12-04T06:36:24.931Z,84.17
2017-12-04T06:37:24.937Z,84.17
2017-12-04T06:38:25.212Z,84.17
2017-12-04T06:39:24.959Z,84.07
2017-12-04T06:40:25.237Z,84.07
2017-12-04T06:41:25.246Z,84.07
2017-12-04T06:42:25.257Z,84.26
2017-12-04T06:43:25.269Z,84.17
2017-12-04T06:44:25.014Z,84.26
2017-12-04T06:45:25.289Z,84.07
2017-12-04T06:46:25.031Z,84.07
2017-12-04T06:47:25.309Z,84.64
2017-12-04T06:48:25.323Z,84.26
2017-12-04T06:49:25.065Z,84.26
2017-12-04T06:50:25.343Z,84.26
2017-12-04T06:51:25.357Z,84.45
2017-12-04T06:52:25.368Z,84.17
2017-12-04T06:53:25.107Z,84.26
2017-12-04T06:54:25.384Z,84.17
2017-12-04T06:55:25.394Z,84.17
2017-12-04T06:56:25.407Z,84.07
2017-12-04T06:57:25.416Z,84.17
2017-12-04T06:58:25.428Z,84.26
2017-12-04T06:59:25.444Z,84.45
2017-12-04T07:00:25.184Z,84.07
2017-12-04T07:01:25.192Z,84.45
2017-12-04T07:02:25.204Z,84.55
2017-12-04T07:03:25.224Z,84.36
2017-12-04T07:04:25.502Z,84.07
2017-12-04T07:05:25.299Z,84.07
2017-12-04T07:06:25.517Z,83.88
2017-12-04T07:07:25.262Z,83.88
2017-12-04T07:08:25.273Z,83.88
2017-12-04T07:09:25.548Z,83.59
2017-12-04T07:10:25.294Z,83.78
2017-12-04T07:11:25.301Z,83.88
2017-12-04T07:12:25.584Z,83.69
2017-12-04T07:13:25.593Z,83.78
2017-12-04T07:14:25.655Z,83.88
2017-12-04T07:15:25.613Z,83.88
2017-12-04T07:16:25.624Z,83.88
2017-12-04T07:17:25.643Z,83.69
2017-12-04T07:18:25.648Z,83.78
2017-12-04T07:19:25.693Z,83.5
2017-12-04T07:20:25.671Z,83.88
2017-12-04T07:21:25.726Z,84.07
2017-12-04T07:22:25.690Z,84.17
2017-12-04T07:23:25.701Z,83.88
2017-12-04T07:24:25.710Z,83.5
2017-12-04T07:25:25.721Z,83.4
2017-12-04T07:26:25.734Z,83.59
2017-12-04T07:27:25.777Z,83.97
2017-12-04T07:28:25.756Z,83.4
2017-12-04T07:29:25.497Z,83.78
2017-12-04T07:30:25.783Z,83.78
2017-12-04T07:31:25.784Z,83.5
2017-12-04T07:32:25.810Z,83.88
2017-12-04T07:33:25.814Z,83.88
2017-12-04T07:34:25.828Z,83.5
2017-12-04T07:35:25.831Z,83.97
2017-12-04T07:36:25.845Z,83.4
2017-12-04T07:37:25.863Z,83.5
2017-12-04T07:38:25.866Z,83.59
2017-12-04T07:39:25.885Z,83.78
2017-12-04T07:40:25.885Z,83.88
2017-12-04T07:41:25.895Z,83.88
2017-12-04T07:42:25.909Z,83.88
2017-12-04T07:43:25.918Z,84.07
2017-12-04T07:44:25.929Z,84.26
2017-12-04T07:45:25.942Z,83.88
2017-12-04T07:46:25.952Z,83.78
2017-12-04T07:47:25.963Z,83.97
2017-12-04T07:48:25.977Z,83.78
2017-12-04T07:49:25.990Z,84.07
2017-12-04T07:50:25.729Z,84.36
2017-12-04T07:51:25.739Z,84.64
2017-12-04T07:52:25.748Z,84.45
2017-12-04T07:53:26.031Z,85.21
2017-12-04T07:54:26.044Z,85.21
2017-12-04T07:55:25.780Z,84.55
2017-12-04T07:56:26.064Z,84.92
2017-12-04T07:57:26.074Z,84.17
2017-12-04T07:58:26.082Z,84.26
2017-12-04T07:59:26.094Z,84.45
2017-12-04T08:00:26.105Z,84.07
2017-12-04T08:01:26.116Z,84.26
2017-12-04T08:02:25.858Z,84.26
2017-12-04T08:03:26.136Z,83.97
2017-12-04T08:04:26.148Z,84.07
2017-12-04T08:05:26.160Z,83.69
2017-12-04T08:06:26.173Z,83.69
2017-12-04T08:07:26.185Z,83.69
2017-12-04T08:08:25.925Z,83.5
2017-12-04T08:09:26.209Z,83.5
2017-12-04T08:10:26.222Z,83.78
2017-12-04T08:11:26.227Z,83.88
2017-12-04T08:12:26.235Z,83.88
2017-12-04T08:13:26.249Z,83.97
2017-12-04T08:14:26.321Z,84.17
2017-12-04T08:15:26.274Z,83.88
2017-12-04T08:16:26.279Z,83.59
2017-12-04T08:17:26.294Z,83.88
2017-12-04T08:18:26.300Z,83.88
2017-12-04T08:19:26.320Z,83.78
2017-12-04T08:20:26.327Z,83.88
2017-12-04T08:21:26.073Z,83.59
2017-12-04T08:22:26.347Z,83.59
2017-12-04T08:23:26.368Z,83.69
2017-12-04T08:24:26.373Z,83.78
2017-12-04T08:25:26.390Z,83.59
2017-12-04T08:26:26.542Z,83.5
2017-12-04T08:27:26.413Z,83.97
2017-12-04T08:28:26.146Z,83.69
2017-12-04T08:29:26.423Z,83.69
2017-12-04T08:30:26.440Z,83.5
2017-12-04T08:31:26.448Z,83.97
2017-12-04T08:32:26.456Z,84.17
2017-12-04T08:33:26.470Z,83.97
2017-12-04T08:34:26.485Z,84.17
2017-12-04T08:35:26.491Z,84.07
2017-12-04T08:36:26.502Z,84.17
2017-12-04T08:37:26.517Z,84.36
2017-12-04T08:38:26.526Z,83.88
2017-12-04T08:39:26.536Z,83.88
2017-12-04T08:40:26.281Z,83.78
2017-12-04T08:41:26.559Z,83.88
2017-12-04T08:42:26.567Z,83.88
2017-12-04T08:43:26.583Z,83.78
2017-12-04T08:44:26.591Z,83.97
2017-12-04T08:45:26.606Z,83.78
2017-12-04T08:46:26.618Z,83.78
2017-12-04T08:47:26.630Z,84.07
2017-12-04T08:48:26.637Z,84.21
2017-12-04T08:49:26.647Z,84.4
2017-12-04T08:50:26.658Z,84.49
2017-12-04T08:51:26.673Z,84.49
2017-12-04T08:52:26.683Z,84.4
2017-12-04T08:53:26.689Z,84.11
2017-12-04T08:54:26.701Z,83.92
2017-12-04T08:55:26.447Z,84.01
2017-12-04T08:56:26.723Z,83.83
2017-12-04T08:57:26.738Z,83.64
2017-12-04T08:58:26.747Z,83.83
2017-12-04T08:59:26.764Z,83.83
2017-12-04T09:00:26.769Z,83.54
2017-12-04T09:01:26.780Z,83.64
2017-12-04T09:02:26.798Z,83.83
2017-12-04T09:03:26.801Z,83.73
2017-12-04T09:04:26.827Z,83.64
2017-12-04T09:05:26.827Z,83.64
2017-12-04T09:06:26.844Z,83.83
2017-12-04T09:07:26.850Z,83.92
2017-12-04T09:08:26.861Z,83.73
2017-12-04T09:09:26.606Z,83.54
2017-12-04T09:10:26.885Z,83.54
2017-12-04T09:11:26.895Z,84.21
2017-12-04T09:12:26.905Z,83.83
2017-12-04T09:13:26.918Z,83.92
2017-12-04T09:14:26.926Z,84.01
2017-12-04T09:15:26.937Z,83.92
2017-12-04T09:16:26.953Z,83.64
2017-12-04T09:17:26.961Z,83.83
2017-12-04T09:18:26.972Z,83.83
2017-12-04T09:19:26.985Z,83.54
2017-12-04T09:20:26.999Z,84.01
2017-12-04T09:21:27.005Z,83.64
2017-12-04T09:22:27.014Z,83.92
2017-12-04T09:23:26.764Z,83.73
2017-12-04T09:24:27.044Z,83.92
2017-12-04T09:25:27.058Z,83.64
2017-12-04T09:26:27.064Z,84.21
2017-12-04T09:27:27.071Z,83.64
2017-12-04T09:28:26.820Z,84.01
2017-12-04T09:29:27.097Z,84.01
2017-12-04T09:30:27.110Z,83.92
2017-12-04T09:31:27.120Z,83.54
2017-12-04T09:32:27.159Z,84.01
2017-12-04T09:33:27.144Z,83.83
2017-12-04T09:34:26.888Z,83.92
2017-12-04T09:35:27.165Z,83.73
2017-12-04T09:36:27.180Z,83.64
2017-12-04T09:37:27.188Z,84.01
2017-12-04T09:38:27.201Z,83.83
2017-12-04T09:39:27.212Z,83.92
2017-12-04T09:40:27.224Z,83.83
2017-12-04T09:41:27.240Z,83.83
2017-12-04T09:42:26.982Z,83.64
2017-12-04T09:43:27.263Z,83.83
2017-12-04T09:44:27.276Z,83.54
2017-12-04T09:45:27.286Z,83.45
2017-12-04T09:46:27.294Z,84.01
2017-12-04T09:47:27.040Z,84.01
2017-12-04T09:48:27.315Z,83.73
2017-12-04T09:49:27.328Z,83.64
2017-12-04T09:50:27.351Z,83.92
2017-12-04T09:51:27.351Z,83.64
2017-12-04T09:52:27.369Z,83.92
2017-12-04T09:53:27.375Z,83.92
2017-12-04T09:54:27.391Z,83.83
2017-12-04T09:55:27.396Z,84.01
2017-12-04T09:56:27.412Z,83.83
2017-12-04T09:57:27.428Z,83.92
2017-12-04T09:58:27.432Z,83.73
2017-12-04T09:59:27.176Z,83.73
2017-12-04T10:00:27.192Z,83.83
2017-12-04T10:01:27.199Z,83.92
2017-12-04T10:02:27.481Z,84.16
2017-12-04T10:03:27.490Z,84.01
2017-12-04T10:04:27.238Z,83.73
2017-12-04T10:05:27.245Z,83.92
2017-12-04T10:06:27.526Z,83.78
2017-12-04T10:07:27.538Z,83.64
2017-12-04T10:08:27.283Z,83.73
2017-12-04T10:09:27.566Z,83.54
2017-12-04T10:10:27.572Z,83.54
2017-12-04T10:11:27.594Z,83.59
2017-12-04T10:12:27.332Z,83.39
2017-12-04T10:13:27.608Z,83.49
2017-12-04T10:14:27.351Z,83.68
2017-12-04T10:15:27.653Z,83.68
2017-12-04T10:16:27.652Z,83.59
2017-12-04T10:17:27.388Z,83.59
2017-12-04T10:18:27.721Z,83.49
2017-12-04T10:19:27.410Z,83.49
2017-12-04T10:20:27.717Z,83.68
2017-12-04T10:21:27.714Z,83.2
2017-12-04T10:22:27.712Z,83.2
2017-12-04T10:23:27.727Z,83.2
2017-12-04T10:24:27.736Z,83.39
2017-12-04T10:25:27.753Z,83.11
2017-12-04T10:26:27.762Z,83.2
2017-12-04T10:27:27.771Z,83.59
2017-12-04T10:28:27.789Z,83.68
2017-12-04T10:29:27.794Z,83.39
2017-12-04T10:30:27.809Z,83.2
2017-12-04T10:31:27.821Z,83.3
2017-12-04T10:32:27.832Z,83.49
2017-12-04T10:33:27.842Z,83.39
2017-12-04T10:34:27.853Z,83.97
2017-12-04T10:35:27.871Z,83.68
2017-12-04T10:36:27.616Z,83.97
2017-12-04T10:37:27.891Z,83.49
2017-12-04T10:38:27.905Z,83.78
2017-12-04T10:39:27.917Z,83.87
2017-12-04T10:40:27.660Z,83.78
2017-12-04T10:41:27.942Z,83.87
2017-12-04T10:42:27.950Z,83.39
2017-12-04T10:43:27.964Z,83.39
2017-12-04T10:44:27.979Z,84.16
2017-12-04T10:45:27.984Z,83.49
2017-12-04T10:46:28.001Z,83.39
2017-12-04T10:47:28.010Z,83.59
2017-12-04T10:48:28.020Z,83.68
2017-12-04T10:49:28.040Z,83.39
2017-12-04T10:50:28.047Z,83.39
2017-12-04T10:51:28.062Z,83.3
2017-12-04T10:52:28.069Z,83.39
2017-12-04T10:53:28.088Z,83.59
2017-12-04T10:54:28.099Z,83.49
2017-12-04T10:55:28.109Z,83.59
2017-12-04T10:56:28.118Z,83.3
2017-12-04T10:57:28.138Z,83.39
2017-12-04T10:58:28.142Z,83.39
2017-12-04T10:59:28.155Z,83.49
2017-12-04T11:00:28.185Z,83.49
2017-12-04T11:01:28.181Z,83.68
2017-12-04T11:02:28.201Z,83.3
2017-12-04T11:03:28.209Z,83.39
2017-12-04T11:04:27.947Z,83.49
2017-12-04T11:05:28.283Z,83.49
2017-12-04T11:06:27.972Z,83.11
2017-12-04T11:07:28.253Z,83.39
2017-12-04T11:08:27.999Z,83.68
2017-12-04T11:09:28.276Z,83.3
2017-12-04T11:10:28.286Z,83.3
2017-12-04T11:11:28.304Z,83.3
2017-12-04T11:12:28.313Z,83.39
2017-12-04T11:13:28.323Z,83.59
2017-12-04T11:14:28.337Z,83.3
2017-12-04T11:15:28.082Z,83.3
2017-12-04T11:16:28.361Z,83.34
2017-12-04T11:17:28.374Z,83.3
2017-12-04T11:18:28.405Z,83.72
2017-12-04T11:19:28.398Z,83.59
2017-12-04T11:20:28.409Z,83.39
2017-12-04T11:21:28.426Z,83.44
2017-12-04T11:22:28.437Z,83.44
2017-12-04T11:23:28.451Z,83.62
2017-12-04T11:24:28.463Z,83.59
2017-12-04T11:25:28.473Z,83.44
2017-12-04T11:26:28.485Z,83.49
2017-12-04T11:27:28.227Z,83.25
2017-12-04T11:28:28.518Z,83.25
2017-12-04T11:29:28.260Z,83.15
2017-12-04T11:30:28.535Z,83.11
2017-12-04T11:31:28.545Z,82.87
2017-12-04T11:32:28.558Z,83.68
2017-12-04T11:33:28.571Z,83.11
2017-12-04T11:34:28.319Z,83.25
2017-12-04T11:35:28.597Z,83.01
2017-12-04T11:36:28.343Z,83.15
2017-12-04T11:37:28.625Z,83.68
2017-12-04T11:38:28.632Z,83.44
2017-12-04T11:39:28.644Z,83.53
2017-12-04T11:40:28.662Z,83.62
2017-12-04T11:41:28.677Z,83.25
2017-12-04T11:42:28.684Z,83.25
2017-12-04T11:43:28.692Z,83.72
2017-12-04T11:44:28.439Z,83.91
2017-12-04T11:45:28.451Z,83.53
2017-12-04T11:46:28.731Z,83.62
2017-12-04T11:47:28.476Z,83.53
2017-12-04T11:48:28.753Z,83.34
2017-12-04T11:49:28.766Z,83.44
2017-12-04T11:50:28.781Z,83.82
2017-12-04T11:51:28.794Z,83.72
2017-12-04T11:52:28.802Z,83.62
2017-12-04T11:53:28.566Z,83.91
2017-12-04T11:54:28.831Z,83.62
2017-12-04T11:55:28.846Z,83.53
2017-12-04T11:56:28.602Z,83.72
2017-12-04T11:57:28.873Z,83.15
2017-12-04T11:58:28.881Z,83.15
2017-12-04T11:59:28.891Z,83.34
2017-12-04T12:00:28.903Z,83.25
2017-12-04T12:01:28.921Z,83.62
2017-12-04T12:02:28.929Z,82.96
2017-12-04T12:03:28.944Z,83.53
2017-12-04T12:04:28.961Z,82.96
2017-12-04T12:05:28.698Z,83.44
2017-12-04T12:06:28.977Z,83.34
2017-12-04T12:07:28.990Z,83.15
2017-12-04T12:08:28.735Z,83.15
2017-12-04T12:09:29.015Z,83.25
2017-12-04T12:10:29.026Z,83.72
2017-12-04T12:11:29.040Z,83.44
2017-12-04T12:12:29.057Z,83.62
2017-12-04T12:13:28.799Z,83.53
2017-12-04T12:14:28.809Z,83.25
2017-12-04T12:15:28.824Z,83.25
2017-12-04T12:16:29.101Z,83.25
2017-12-04T12:17:29.113Z,83.06
2017-12-04T12:18:29.120Z,83.15
2017-12-04T12:19:29.134Z,82.96
2017-12-04T12:26:01.227Z,83.25
2017-12-04T12:27:01.240Z,83.15
2017-12-04T12:28:00.984Z,83.34
2017-12-04T12:29:01.273Z,83.25
2017-12-04T12:30:01.012Z,83.15
2017-12-04T12:31:01.024Z,82.96
2017-12-04T12:32:01.300Z,82.58
2017-12-04T12:33:01.047Z,82.49
2017-12-04T12:34:01.067Z,82.68
2017-12-04T12:35:01.340Z,82.87
2017-12-04T12:36:01.354Z,82.87
2017-12-04T12:37:01.363Z,82.68
2017-12-04T12:38:01.112Z,82.87
2017-12-04T12:39:01.391Z,82.96
2017-12-04T12:40:01.404Z,83.15
2017-12-04T12:41:01.154Z,82.96
2017-12-04T12:42:01.699Z,83.15
2017-12-04T12:43:01.178Z,82.77
2017-12-04T12:44:01.464Z,82.87
2017-12-04T12:45:01.472Z,82.68
2017-12-04T12:46:01.486Z,83.06
2017-12-04T12:47:01.225Z,82.87
2017-12-04T12:48:01.504Z,82.87
2017-12-04T12:49:01.522Z,82.87
2017-12-04T12:50:01.538Z,83.06
2017-12-04T12:51:01.553Z,83.06
2017-12-04T12:52:01.561Z,83.06
2017-12-04T12:53:01.300Z,82.58
2017-12-04T12:54:01.685Z,82.68
2017-12-04T12:55:01.326Z,82.96
2017-12-04T12:56:01.342Z,82.87
2017-12-04T12:57:01.619Z,83.06
2017-12-04T12:58:01.368Z,82.96
2017-12-04T12:59:01.646Z,82.96
2017-12-04T13:00:01.657Z,82.87